sensor_id;sensor_type;location;lat;lon;timestamp;pressure;altitude;pressure_sealevel;temperature;humidity
75146;BME280;63641;46.526;24.612;2023-04-01T00:01:15;96098.19;;;7.49;75.54
75146;BME280;63641;46.526;24.612;2023-04-01T00:03:43;96101.41;;;7.52;75.41
75146;BME280;63641;46.526;24.612;2023-04-01T00:06:16;96098.72;;;7.52;75.54
75146;BME280;63641;46.526;24.612;2023-04-01T00:08:44;96092.50;;;7.51;75.41
75146;BME280;63641;46.526;24.612;2023-04-01T00:11:11;96084.72;;;7.49;75.44
75146;BME280;63641;46.526;24.612;2023-04-01T00:13:38;96082.03;;;7.49;75.22
75146;BME280;63641;46.526;24.612;2023-04-01T00:16:05;96081.53;;;7.47;75.36
75146;BME280;63641;46.526;24.612;2023-04-01T00:18:47;96077.53;;;7.45;75.42
75146;BME280;63641;46.526;24.612;2023-04-01T00:21:15;96074.53;;;7.46;75.43
75146;BME280;63641;46.526;24.612;2023-04-01T00:23:42;96069.16;;;7.46;75.18
75146;BME280;63641;46.526;24.612;2023-04-01T00:26:10;96064.88;;;7.45;75.32
75146;BME280;63641;46.526;24.612;2023-04-01T00:28:39;96067.88;;;7.44;75.36
75146;BME280;63641;46.526;24.612;2023-04-01T00:31:07;96059.38;;;7.37;75.33
75146;BME280;63641;46.526;24.612;2023-04-01T00:33:34;96075.72;;;7.40;75.62
75146;BME280;63641;46.526;24.612;2023-04-01T00:36:12;96081.59;;;7.42;75.45
75146;BME280;63641;46.526;24.612;2023-04-01T00:38:39;96076.53;;;7.41;75.50
75146;BME280;63641;46.526;24.612;2023-04-01T00:41:07;96068.72;;;7.39;75.57
75146;BME280;63641;46.526;24.612;2023-04-01T00:43:34;96068.72;;;7.39;75.60
75146;BME280;63641;46.526;24.612;2023-04-01T00:46:01;96065.03;;;7.35;75.55
75146;BME280;63641;46.526;24.612;2023-04-01T00:48:31;96056.44;;;7.33;75.58
75146;BME280;63641;46.526;24.612;2023-04-01T00:51:03;96040.31;;;7.33;75.67
75146;BME280;63641;46.526;24.612;2023-04-01T00:53:32;96032.50;;;7.32;75.56
75146;BME280;63641;46.526;24.612;2023-04-01T00:56:05;96025.25;;;7.32;76.15
75146;BME280;63641;46.526;24.612;2023-04-01T00:58:39;96027.88;;;7.37;75.69
75146;BME280;63641;46.526;24.612;2023-04-01T01:01:08;96037.22;;;7.40;75.72
75146;BME280;63641;46.526;24.612;2023-04-01T01:03:36;96043.34;;;7.45;75.63
75146;BME280;63641;46.526;24.612;2023-04-01T01:06:10;96039.06;;;7.44;75.54
75146;BME280;63641;46.526;24.612;2023-04-01T01:11:08;96012.44;;;7.43;75.21
75146;BME280;63641;46.526;24.612;2023-04-01T01:13:58;96011.13;;;7.40;75.55
75146;BME280;63641;46.526;24.612;2023-04-01T01:16:30;96001.97;;;7.41;75.47
75146;BME280;63641;46.526;24.612;2023-04-01T01:27:23;96001.09;;;7.46;75.23
75146;BME280;63641;46.526;24.612;2023-04-01T01:35:47;95996.28;;;7.43;75.28
75146;BME280;63641;46.526;24.612;2023-04-01T01:38:22;95996.81;;;7.45;75.59
75146;BME280;63641;46.526;24.612;2023-04-01T01:40:52;95992.78;;;7.42;75.79
75146;BME280;63641;46.526;24.612;2023-04-01T01:43:41;95980.00;;;7.34;75.53
75146;BME280;63641;46.526;24.612;2023-04-01T01:46:17;95997.06;;;7.43;75.61
75146;BME280;63641;46.526;24.612;2023-04-01T01:48:47;95996.00;;;7.44;75.71
75146;BME280;63641;46.526;24.612;2023-04-01T01:51:14;95990.09;;;7.42;75.77
75146;BME280;63641;46.526;24.612;2023-04-01T01:53:41;95986.63;;;7.42;75.69
75146;BME280;63641;46.526;24.612;2023-04-01T01:56:10;95983.94;;;7.42;75.88
75146;BME280;63641;46.526;24.612;2023-04-01T01:58:41;95979.06;;;7.44;76.03
75146;BME280;63641;46.526;24.612;2023-04-01T02:01:13;95982.81;;;7.43;76.21
75146;BME280;63641;46.526;24.612;2023-04-01T02:03:42;95988.16;;;7.48;76.23
75146;BME280;63641;46.526;24.612;2023-04-01T02:06:14;95988.84;;;7.54;76.05
75146;BME280;63641;46.526;24.612;2023-04-01T02:08:49;95992.53;;;7.58;76.16
75146;BME280;63641;46.526;24.612;2023-04-01T02:11:20;95986.09;;;7.59;76.12
75146;BME280;63641;46.526;24.612;2023-04-01T02:14:07;95979.03;;;7.63;76.15
75146;BME280;63641;46.526;24.612;2023-04-01T02:19:13;95973.75;;;7.71;76.11
75146;BME280;63641;46.526;24.612;2023-04-01T02:21:42;95971.56;;;7.73;76.26
75146;BME280;63641;46.526;24.612;2023-04-01T02:24:12;95969.09;;;7.77;76.12
75146;BME280;63641;46.526;24.612;2023-04-01T02:26:40;95961.50;;;7.79;76.14
75146;BME280;63641;46.526;24.612;2023-04-01T02:29:07;95958.53;;;7.81;76.27
75146;BME280;63641;46.526;24.612;2023-04-01T02:31:35;95951.72;;;7.83;76.35
75146;BME280;63641;46.526;24.612;2023-04-01T02:34:03;95952.25;;;7.85;76.23
75146;BME280;63641;46.526;24.612;2023-04-01T02:36:31;95950.53;;;7.89;76.32
75146;BME280;63641;46.526;24.612;2023-04-01T02:38:58;95951.34;;;7.90;76.18
75146;BME280;63641;46.526;24.612;2023-04-01T02:41:29;95951.03;;;7.91;76.27
75146;BME280;63641;46.526;24.612;2023-04-01T02:43:56;95954.44;;;7.97;76.29
75146;BME280;63641;46.526;24.612;2023-04-01T02:46:25;95948.25;;;7.96;76.39
75146;BME280;63641;46.526;24.612;2023-04-01T02:48:52;95950.84;;;8.02;76.25
75146;BME280;63641;46.526;24.612;2023-04-01T02:51:20;95946.25;;;8.02;76.25
75146;BME280;63641;46.526;24.612;2023-04-01T02:53:46;95950.06;;;8.01;76.38
75146;BME280;63641;46.526;24.612;2023-04-01T02:56:13;95956.22;;;8.02;76.39
75146;BME280;63641;46.526;24.612;2023-04-01T02:58:40;95934.78;;;7.96;76.36
75146;BME280;63641;46.526;24.612;2023-04-01T03:01:07;95961.81;;;8.05;76.28
75146;BME280;63641;46.526;24.612;2023-04-01T03:03:35;95952.16;;;8.04;76.25
75146;BME280;63641;46.526;24.612;2023-04-01T03:06:09;95951.75;;;8.11;76.27
75146;BME280;63641;46.526;24.612;2023-04-01T03:08:37;95950.34;;;8.13;76.14
75146;BME280;63641;46.526;24.612;2023-04-01T03:11:04;95956.25;;;8.15;76.19
75146;BME280;63641;46.526;24.612;2023-04-01T03:13:32;95954.06;;;8.17;76.27
75146;BME280;63641;46.526;24.612;2023-04-01T03:15:58;95938.97;;;8.16;76.26
75146;BME280;63641;46.526;24.612;2023-04-01T03:18:25;95931.69;;;8.17;76.22
75146;BME280;63641;46.526;24.612;2023-04-01T03:20:52;95928.19;;;8.16;76.25
75146;BME280;63641;46.526;24.612;2023-04-01T03:23:19;95936.00;;;8.18;76.50
75146;BME280;63641;46.526;24.612;2023-04-01T03:25:47;95931.09;;;8.20;76.25
75146;BME280;63641;46.526;24.612;2023-04-01T03:28:14;95931.69;;;8.17;76.38
75146;BME280;63641;46.526;24.612;2023-04-01T03:30:41;95935.50;;;8.16;76.34
75146;BME280;63641;46.526;24.612;2023-04-01T03:33:08;95936.59;;;8.15;76.47
75146;BME280;63641;46.526;24.612;2023-04-01T03:35:34;95936.59;;;8.15;76.43
75146;BME280;63641;46.526;24.612;2023-04-01T03:38:02;95938.38;;;8.19;76.48
75146;BME280;63641;46.526;24.612;2023-04-01T03:40:29;95925.72;;;8.20;76.49
75146;BME280;63641;46.526;24.612;2023-04-01T03:42:56;95924.00;;;8.24;76.49
75146;BME280;63641;46.526;24.612;2023-04-01T03:45:23;95921.63;;;8.22;76.34
75146;BME280;63641;46.526;24.612;2023-04-01T03:47:49;95913.81;;;8.21;76.56
75146;BME280;63641;46.526;24.612;2023-04-01T03:50:16;95922.72;;;8.21;76.48
75146;BME280;63641;46.526;24.612;2023-04-01T03:52:44;95914.03;;;8.24;76.56
75146;BME280;63641;46.526;24.612;2023-04-01T03:55:11;95910.06;;;8.22;76.61
75146;BME280;63641;46.526;24.612;2023-04-01T03:57:37;95912.16;;;8.25;76.52
75146;BME280;63641;46.526;24.612;2023-04-01T04:00:05;95908.34;;;8.26;76.57
75146;BME280;63641;46.526;24.612;2023-04-01T04:02:32;95906.75;;;8.25;76.50
75146;BME280;63641;46.526;24.612;2023-04-01T04:04:59;95913.22;;;8.24;76.76
75146;BME280;63641;46.526;24.612;2023-04-01T04:07:25;95900.19;;;8.17;76.79
75146;BME280;63641;46.526;24.612;2023-04-01T04:09:52;95900.19;;;8.17;76.78
75146;BME280;63641;46.526;24.612;2023-04-01T04:12:19;95903.34;;;8.19;76.82
75146;BME280;63641;46.526;24.612;2023-04-01T04:14:46;95886.88;;;8.21;76.94
75146;BME280;63641;46.526;24.612;2023-04-01T04:17:12;95891.00;;;8.18;76.78
75146;BME280;63641;46.526;24.612;2023-04-01T04:19:43;95887.19;;;8.19;76.81
75146;BME280;63641;46.526;24.612;2023-04-01T04:22:10;95900.34;;;8.21;76.80
75146;BME280;63641;46.526;24.612;2023-04-01T04:24:36;95913.22;;;8.24;76.75
75146;BME280;63641;46.526;24.612;2023-04-01T04:27:03;95913.81;;;8.21;76.79
75146;BME280;63641;46.526;24.612;2023-04-01T04:29:31;95918.72;;;8.19;76.82
75146;BME280;63641;46.526;24.612;2023-04-01T04:31:57;95916.25;;;8.22;76.85
75146;BME280;63641;46.526;24.612;2023-04-01T04:34:24;95906.25;;;8.23;76.96
75146;BME280;63641;46.526;24.612;2023-04-01T04:36:51;95899.56;;;8.20;76.96
75146;BME280;63641;46.526;24.612;2023-04-01T04:39:18;95905.16;;;8.24;76.94
75146;BME280;63641;46.526;24.612;2023-04-01T04:41:44;95899.06;;;8.18;76.95
75146;BME280;63641;46.526;24.612;2023-04-01T04:44:11;95896.97;;;8.15;77.00
75146;BME280;63641;46.526;24.612;2023-04-01T04:46:38;95917.16;;;8.18;77.04
75146;BME280;63641;46.526;24.612;2023-04-01T04:49:06;95914.44;;;8.18;76.88
75146;BME280;63641;46.526;24.612;2023-04-01T04:51:33;95918.53;;;8.15;76.98
75146;BME280;63641;46.526;24.612;2023-04-01T04:54:03;95929.50;;;8.19;77.01
75146;BME280;63641;46.526;24.612;2023-04-01T04:56:30;95926.31;;;8.17;76.98
75146;BME280;63641;46.526;24.612;2023-04-01T04:58:58;95930.00;;;8.21;77.36
75146;BME280;63641;46.526;24.612;2023-04-01T05:01:25;95933.00;;;8.19;77.04
75146;BME280;63641;46.526;24.612;2023-04-01T05:03:51;95924.13;;;8.19;77.15
75146;BME280;63641;46.526;24.612;2023-04-01T05:06:19;95921.75;;;8.17;77.09
75146;BME280;63641;46.526;24.612;2023-04-01T05:08:48;95918.53;;;8.15;77.14
75146;BME280;63641;46.526;24.612;2023-04-01T05:11:17;95915.72;;;8.20;77.29
75146;BME280;63641;46.526;24.612;2023-04-01T05:13:44;95916.53;;;8.21;77.19
75146;BME280;63641;46.526;24.612;2023-04-01T05:16:15;95913.81;;;8.21;77.20
75146;BME280;63641;46.526;24.612;2023-04-01T05:18:42;95905.75;;;8.21;77.28
75146;BME280;63641;46.526;24.612;2023-04-01T05:21:11;95900.88;;;8.23;77.32
75146;BME280;63641;46.526;24.612;2023-04-01T05:23:38;95893.38;;;8.20;77.23
75146;BME280;63641;46.526;24.612;2023-04-01T05:26:06;95892.78;;;8.23;77.43
75146;BME280;63641;46.526;24.612;2023-04-01T05:28:34;95891.19;;;8.22;77.50
75146;BME280;63641;46.526;24.612;2023-04-01T05:31:02;95889.09;;;8.19;77.43
75146;BME280;63641;46.526;24.612;2023-04-01T05:33:29;95889.56;;;8.21;77.50
75146;BME280;63641;46.526;24.612;2023-04-01T05:36:05;95906.25;;;8.23;77.53
75146;BME280;63641;46.526;24.612;2023-04-01T05:38:32;95908.94;;;8.23;77.39
75146;BME280;63641;46.526;24.612;2023-04-01T05:41:00;95905.16;;;8.24;77.47
75146;BME280;63641;46.526;24.612;2023-04-01T05:43:27;95902.66;;;8.28;77.48
75146;BME280;63641;46.526;24.612;2023-04-01T05:45:54;95903.94;;;8.30;77.45
75146;BME280;63641;46.526;24.612;2023-04-01T05:48:21;95903.44;;;8.28;77.52
75146;BME280;63641;46.526;24.612;2023-04-01T05:50:48;95907.16;;;8.32;77.59
75146;BME280;63641;46.526;24.612;2023-04-01T05:53:14;95898.75;;;8.34;77.56
75146;BME280;63641;46.526;24.612;2023-04-01T05:55:41;95892.06;;;8.31;77.47
75146;BME280;63641;46.526;24.612;2023-04-01T05:58:08;95900.47;;;8.30;77.51
75146;BME280;63641;46.526;24.612;2023-04-01T06:00:34;95901.25;;;8.30;77.51
75146;BME280;63641;46.526;24.612;2023-04-01T06:03:01;95907.94;;;8.33;77.52
75146;BME280;63641;46.526;24.612;2023-04-01T06:05:30;95903.34;;;8.33;77.55
75146;BME280;63641;46.526;24.612;2023-04-01T06:08:08;95911.91;;;8.35;77.54
75146;BME280;63641;46.526;24.612;2023-04-01T06:16:43;95924.84;;;8.38;77.41
75146;BME280;63641;46.526;24.612;2023-04-01T06:19:35;95919.44;;;8.38;77.35
75146;BME280;63641;46.526;24.612;2023-04-01T06:25:28;95915.44;;;8.36;77.33
75146;BME280;63641;46.526;24.612;2023-04-01T06:28:14;95906.53;;;8.35;77.44
75146;BME280;63641;46.526;24.612;2023-04-01T06:40:08;95886.69;;;8.45;77.33
75146;BME280;63641;46.526;24.612;2023-04-01T06:48:14;95882.28;;;8.49;77.60
75146;BME280;63641;46.526;24.612;2023-04-01T06:56:29;95892.53;;;8.61;77.40
75146;BME280;63641;46.526;24.612;2023-04-01T06:59:19;95883.06;;;8.63;77.41
75146;BME280;63641;46.526;24.612;2023-04-01T07:01:55;95871.16;;;8.64;77.41
75146;BME280;63641;46.526;24.612;2023-04-01T07:04:33;95885.34;;;8.70;77.49
75146;BME280;63641;46.526;24.612;2023-04-01T07:07:12;95882.66;;;8.70;77.43
75146;BME280;63641;46.526;24.612;2023-04-01T07:09:43;95884.03;;;8.67;77.51
75146;BME280;63641;46.526;24.612;2023-04-01T07:14:44;95891.22;;;8.72;77.41
75146;BME280;63641;46.526;24.612;2023-04-01T07:17:15;95892.50;;;8.75;77.57
75146;BME280;63641;46.526;24.612;2023-04-01T07:20:20;95885.03;;;8.71;77.50
75146;BME280;63641;46.526;24.612;2023-04-01T07:22:51;95880.81;;;8.79;77.39
75146;BME280;63641;46.526;24.612;2023-04-01T07:25:27;95884.47;;;8.83;77.54
75146;BME280;63641;46.526;24.612;2023-04-01T07:28:05;95874.81;;;8.82;77.38
75146;BME280;63641;46.526;24.612;2023-04-01T07:31:32;95873.69;;;8.83;77.32
75146;BME280;63641;46.526;24.612;2023-04-01T07:33:58;95872.00;;;8.87;77.44
75146;BME280;63641;46.526;24.612;2023-04-01T07:36:35;95866.47;;;8.92;77.55
75146;BME280;63641;46.526;24.612;2023-04-01T07:45:30;95848.00;;;9.08;77.48
75146;BME280;63641;46.526;24.612;2023-04-01T07:56:00;95859.34;;;9.19;77.45
75146;BME280;63641;46.526;24.612;2023-04-01T08:03:43;95863.34;;;9.22;77.63
75146;BME280;63641;46.526;24.612;2023-04-01T08:06:30;95860.84;;;9.25;77.44
75146;BME280;63641;46.526;24.612;2023-04-01T08:11:41;95861.19;;;9.32;77.53
75146;BME280;63641;46.526;24.612;2023-04-01T08:14:19;95842.78;;;9.34;77.48
75146;BME280;63641;46.526;24.612;2023-04-01T08:17:12;95840.56;;;9.36;77.25
75146;BME280;63641;46.526;24.612;2023-04-01T08:22:57;95839.19;;;9.48;77.15
75146;BME280;63641;46.526;24.612;2023-04-01T08:25:28;95837.16;;;9.53;77.16
75146;BME280;63641;46.526;24.612;2023-04-01T08:28:03;95838.94;;;9.58;77.27
75146;BME280;63641;46.526;24.612;2023-04-01T08:30:47;95834.97;;;9.64;77.13
75146;BME280;63641;46.526;24.612;2023-04-01T08:35:51;95824.41;;;9.76;76.82
75146;BME280;63641;46.526;24.612;2023-04-01T08:39:15;95827.75;;;9.82;76.51
75146;BME280;63641;46.526;24.612;2023-04-01T08:42:10;95839.69;;;9.89;76.36
75146;BME280;63641;46.526;24.612;2023-04-01T08:50:43;95831.78;;;10.02;76.03
75146;BME280;63641;46.526;24.612;2023-04-01T08:56:14;95829.09;;;10.10;75.88
75146;BME280;63641;46.526;24.612;2023-04-01T08:59:23;95825.94;;;10.17;75.90
75146;BME280;63641;46.526;24.612;2023-04-01T09:21:41;95807.56;;;10.62;74.51
75146;BME280;63641;46.526;24.612;2023-04-01T09:27:43;95801.69;;;10.69;74.27
75146;BME280;63641;46.526;24.612;2023-04-01T09:38:23;95800.06;;;10.85;73.53
75146;BME280;63641;46.526;24.612;2023-04-01T09:41:11;95801.34;;;10.88;73.51
75146;BME280;63641;46.526;24.612;2023-04-01T09:49:20;95792.91;;;10.98;72.85
75146;BME280;63641;46.526;24.612;2023-04-01T09:52:28;95782.06;;;10.98;72.68
75146;BME280;63641;46.526;24.612;2023-04-01T10:12:10;95766.16;;;11.05;72.41
75146;BME280;63641;46.526;24.612;2023-04-01T10:21:05;95748.44;;;11.08;71.89
75146;BME280;63641;46.526;24.612;2023-04-01T10:23:55;95755.91;;;11.20;71.81
75146;BME280;63641;46.526;24.612;2023-04-01T10:26:32;95757.16;;;11.22;71.80
75146;BME280;63641;46.526;24.612;2023-04-01T10:34:57;95762.28;;;11.24;71.61
75146;BME280;63641;46.526;24.612;2023-04-01T10:51:59;95774.19;;;11.31;71.34
75146;BME280;63641;46.526;24.612;2023-04-01T11:33:46;95761.47;;;11.23;72.46
75146;BME280;63641;46.526;24.612;2023-04-01T11:42:22;95756.72;;;11.20;72.42
75146;BME280;63641;46.526;24.612;2023-04-01T11:56:59;95748.72;;;11.24;72.64
75146;BME280;63641;46.526;24.612;2023-04-01T12:05:16;95753.31;;;11.32;72.35
75146;BME280;63641;46.526;24.612;2023-04-01T12:10:39;95743.13;;;11.29;72.33
75146;BME280;63641;46.526;24.612;2023-04-01T12:13:48;95743.91;;;11.29;72.32
75146;BME280;63641;46.526;24.612;2023-04-01T12:25:29;95739.56;;;11.46;72.22
75146;BME280;63641;46.526;24.612;2023-04-01T12:39:57;95742.09;;;11.80;71.98
75146;BME280;63641;46.526;24.612;2023-04-01T12:45:29;95737.75;;;11.97;71.52
75146;BME280;63641;46.526;24.612;2023-04-01T12:56:09;95732.78;;;12.20;70.91
75146;BME280;63641;46.526;24.612;2023-04-01T13:01:29;95716.72;;;12.36;70.39
75146;BME280;63641;46.526;24.612;2023-04-01T13:12:35;95705.50;;;12.58;69.86
75146;BME280;63641;46.526;24.612;2023-04-01T13:15:25;95711.97;;;12.66;69.34
75146;BME280;63641;46.526;24.612;2023-04-01T13:18:18;95719.03;;;12.79;68.98
75146;BME280;63641;46.526;24.612;2023-04-01T13:21:18;95705.63;;;12.95;68.50
75146;BME280;63641;46.526;24.612;2023-04-01T13:34:41;95710.59;;;13.38;66.69
75146;BME280;63641;46.526;24.612;2023-04-01T13:40:21;95710.28;;;13.52;66.17
75146;BME280;63641;46.526;24.612;2023-04-01T13:43:03;95710.03;;;13.57;66.04
75146;BME280;63641;46.526;24.612;2023-04-01T13:51:15;95703.22;;;13.51;64.93
75146;BME280;63641;46.526;24.612;2023-04-01T13:56:34;95701.31;;;13.39;64.69
75146;BME280;63641;46.526;24.612;2023-04-01T14:02:18;95697.13;;;13.42;64.30
75146;BME280;63641;46.526;24.612;2023-04-01T14:10:36;95686.47;;;13.61;63.81
75146;BME280;63641;46.526;24.612;2023-04-01T14:15:58;95689.19;;;13.61;63.51
75146;BME280;63641;46.526;24.612;2023-04-01T14:21:19;95690.22;;;13.69;63.37
75146;BME280;63641;46.526;24.612;2023-04-01T14:24:17;95686.69;;;13.68;63.12
75146;BME280;63641;46.526;24.612;2023-04-01T14:27:12;95684.44;;;13.70;63.17
75146;BME280;63641;46.526;24.612;2023-04-01T14:44:22;95685.81;;;13.64;62.86
75146;BME280;63641;46.526;24.612;2023-04-01T14:49:39;95689.66;;;13.51;62.61
75146;BME280;63641;46.526;24.612;2023-04-01T14:52:27;95681.72;;;13.46;62.64
75146;BME280;63641;46.526;24.612;2023-04-01T14:54:56;95686.25;;;13.42;62.52
75146;BME280;63641;46.526;24.612;2023-04-01T14:57:28;95685.25;;;13.34;62.33
75146;BME280;63641;46.526;24.612;2023-04-01T15:00:14;95678.56;;;13.32;61.91
75146;BME280;63641;46.526;24.612;2023-04-01T15:11:13;95678.16;;;13.21;62.27
75146;BME280;63641;46.526;24.612;2023-04-01T15:16:52;95674.22;;;13.18;62.62
75146;BME280;63641;46.526;24.612;2023-04-01T15:20:35;95675.34;;;13.17;62.37
75146;BME280;63641;46.526;24.612;2023-04-01T15:34:29;95665.16;;;13.14;62.57
75146;BME280;63641;46.526;24.612;2023-04-01T15:37:08;95671.03;;;13.16;62.53
75146;BME280;63641;46.526;24.612;2023-04-01T15:39:40;95669.91;;;13.17;62.68
75146;BME280;63641;46.526;24.612;2023-04-01T15:53:18;95677.25;;;13.17;62.60
75146;BME280;63641;46.526;24.612;2023-04-01T16:01:43;95684.63;;;13.04;63.14
75146;BME280;63641;46.526;24.612;2023-04-01T16:15:44;95674.53;;;12.59;64.63
75146;BME280;63641;46.526;24.612;2023-04-01T16:18:43;95697.38;;;12.58;65.01
75146;BME280;63641;46.526;24.612;2023-04-01T16:23:53;95702.88;;;12.49;65.34
75146;BME280;63641;46.526;24.612;2023-04-01T16:26:39;95699.56;;;12.44;65.40
75146;BME280;63641;46.526;24.612;2023-04-01T16:32:13;95704.06;;;12.40;65.73
75146;BME280;63641;46.526;24.612;2023-04-01T16:34:58;95697.72;;;12.36;65.79
75146;BME280;63641;46.526;24.612;2023-04-01T16:37:36;95710.38;;;12.31;66.04
75146;BME280;63641;46.526;24.612;2023-04-01T16:45:36;95716.19;;;12.21;66.54
75146;BME280;63641;46.526;24.612;2023-04-01T16:48:13;95724.19;;;12.18;66.74
75146;BME280;63641;46.526;24.612;2023-04-01T16:50:53;95721.81;;;12.16;66.77
75146;BME280;63641;46.526;24.612;2023-04-01T16:56:10;95719.16;;;12.07;66.69
75146;BME280;63641;46.526;24.612;2023-04-01T17:01:53;95732.19;;;12.14;66.91
75146;BME280;63641;46.526;24.612;2023-04-01T17:15:45;95742.31;;;12.05;67.28
75146;BME280;63641;46.526;24.612;2023-04-01T17:18:40;95752.38;;;12.04;67.17
75146;BME280;63641;46.526;24.612;2023-04-01T17:21:15;95745.19;;;12.00;67.30
75146;BME280;63641;46.526;24.612;2023-04-01T17:24:04;95750.81;;;11.95;67.54
75146;BME280;63641;46.526;24.612;2023-04-01T17:30:22;95751.03;;;11.90;67.80
75146;BME280;63641;46.526;24.612;2023-04-01T17:36:29;95755.19;;;11.78;68.10
75146;BME280;63641;46.526;24.612;2023-04-01T17:45:16;95772.31;;;11.61;68.52
75146;BME280;63641;46.526;24.612;2023-04-01T17:47:55;95778.06;;;11.60;68.37
75146;BME280;63641;46.526;24.612;2023-04-01T17:51:50;95772.19;;;11.58;68.64
75146;BME280;63641;46.526;24.612;2023-04-01T17:53:54;95773.75;;;11.59;68.42
75146;BME280;63641;46.526;24.612;2023-04-01T17:59:06;95780.50;;;11.53;68.82
75146;BME280;63641;46.526;24.612;2023-04-01T18:01:52;95781.44;;;11.48;68.76
75146;BME280;63641;46.526;24.612;2023-04-01T18:07:27;95782.44;;;11.44;68.94
75146;BME280;63641;46.526;24.612;2023-04-01T18:15:40;95784.19;;;11.40;69.27
75146;BME280;63641;46.526;24.612;2023-04-01T18:21:28;95789.78;;;11.34;69.44
75146;BME280;63641;46.526;24.612;2023-04-01T18:23:58;95785.81;;;11.32;69.42
75146;BME280;63641;46.526;24.612;2023-04-01T18:26:33;95784.88;;;11.28;69.48
75146;BME280;63641;46.526;24.612;2023-04-01T18:31:51;95785.66;;;11.28;69.56
75146;BME280;63641;46.526;24.612;2023-04-01T18:34:52;95793.31;;;11.26;69.55
75146;BME280;63641;46.526;24.612;2023-04-01T18:37:42;95790.59;;;11.26;69.57
75146;BME280;63641;46.526;24.612;2023-04-01T18:43:46;95789.34;;;11.24;69.64
75146;BME280;63641;46.526;24.612;2023-04-01T18:45:59;95799.06;;;11.25;69.54
75146;BME280;63641;46.526;24.612;2023-04-01T18:48:42;95794.28;;;11.22;69.75
75146;BME280;63641;46.526;24.612;2023-04-01T18:51:17;95785.84;;;11.15;69.75
75146;BME280;63641;46.526;24.612;2023-04-01T18:53:59;95795.88;;;11.14;69.91
75146;BME280;63641;46.526;24.612;2023-04-01T18:56:33;95800.34;;;11.10;70.05
75146;BME280;63641;46.526;24.612;2023-04-01T18:59:04;95801.94;;;11.11;69.95
75146;BME280;63641;46.526;24.612;2023-04-01T19:02:00;95800.34;;;11.10;70.09
75146;BME280;63641;46.526;24.612;2023-04-01T19:04:36;95802.56;;;11.08;70.12
75146;BME280;63641;46.526;24.612;2023-04-01T19:13:40;95803.09;;;11.01;70.11
75146;BME280;63641;46.526;24.612;2023-04-01T19:16:12;95808.81;;;11.00;70.19
75146;BME280;63641;46.526;24.612;2023-04-01T19:24:54;95805.63;;;10.89;70.44
75146;BME280;63641;46.526;24.612;2023-04-01T19:27:34;95811.69;;;10.95;70.34
75146;BME280;63641;46.526;24.612;2023-04-01T19:30:31;95815.81;;;10.92;70.44
75146;BME280;63641;46.526;24.612;2023-04-01T19:36:25;95815.22;;;10.86;70.60
75146;BME280;63641;46.526;24.612;2023-04-01T19:39:15;95816.13;;;10.82;70.52
75146;BME280;63641;46.526;24.612;2023-04-01T19:48:02;95814.72;;;10.67;70.89
75146;BME280;63641;46.526;24.612;2023-04-01T19:50:53;95814.56;;;10.63;70.88
75146;BME280;63641;46.526;24.612;2023-04-01T19:56:18;95830.63;;;10.60;71.12
75146;BME280;63641;46.526;24.612;2023-04-01T19:58:53;95826.16;;;10.55;71.21
75146;BME280;63641;46.526;24.612;2023-04-01T20:01:44;95831.13;;;10.53;71.17
75146;BME280;63641;46.526;24.612;2023-04-01T20:04:17;95821.88;;;10.46;71.36
75146;BME280;63641;46.526;24.612;2023-04-01T20:14:55;95817.88;;;10.34;71.59
75146;BME280;63641;46.526;24.612;2023-04-01T20:47:59;95841.03;;;10.18;72.01
75146;BME280;63641;46.526;24.612;2023-04-01T20:53:13;95843.56;;;10.14;71.86
75146;BME280;63641;46.526;24.612;2023-04-01T21:17:42;95860.69;;;9.92;72.65
75146;BME280;63641;46.526;24.612;2023-04-01T21:20:48;95868.31;;;9.90;72.50
75146;BME280;63641;46.526;24.612;2023-04-01T21:26:26;95861.56;;;9.79;72.52
75146;BME280;63641;46.526;24.612;2023-04-01T21:37:31;95875.88;;;9.49;72.11
75146;BME280;63641;46.526;24.612;2023-04-01T21:48:47;95883.34;;;9.21;72.54
75146;BME280;63641;46.526;24.612;2023-04-01T21:54:46;95890.41;;;9.08;72.34
75146;BME280;63641;46.526;24.612;2023-04-01T22:00:31;95886.47;;;8.91;72.30
75146;BME280;63641;46.526;24.612;2023-04-01T22:05:44;95899.69;;;8.79;72.32
75146;BME280;63641;46.526;24.612;2023-04-01T22:11:10;95892.63;;;8.69;72.61
75146;BME280;63641;46.526;24.612;2023-04-01T22:13:47;95886.25;;;8.65;72.46
75146;BME280;63641;46.526;24.612;2023-04-01T22:16:40;95896.34;;;8.60;72.55
75146;BME280;63641;46.526;24.612;2023-04-01T22:22:16;95887.88;;;8.53;72.37
75146;BME280;63641;46.526;24.612;2023-04-01T22:43:42;95893.19;;;8.30;73.25
75146;BME280;63641;46.526;24.612;2023-04-01T22:46:46;95900.16;;;8.31;73.45
75146;BME280;63641;46.526;24.612;2023-04-01T22:49:24;95896.47;;;8.27;73.41
75146;BME280;63641;46.526;24.612;2023-04-01T22:52:01;95892.78;;;8.23;73.63
75146;BME280;63641;46.526;24.612;2023-04-01T22:54:40;95894.16;;;8.20;74.11
75146;BME280;63641;46.526;24.612;2023-04-01T22:57:16;95898.69;;;8.25;74.36
75146;BME280;63641;46.526;24.612;2023-04-01T22:59:54;95899.94;;;8.28;74.55
75146;BME280;63641;46.526;24.612;2023-04-01T23:02:32;95898.75;;;8.34;74.61
75146;BME280;63641;46.526;24.612;2023-04-01T23:05:01;95899.78;;;8.38;74.76
75146;BME280;63641;46.526;24.612;2023-04-01T23:13:05;95902.66;;;8.41;74.43
75146;BME280;63641;46.526;24.612;2023-04-01T23:15:36;95894.91;;;8.40;74.48
75146;BME280;63641;46.526;24.612;2023-04-01T23:18:18;95900.78;;;8.42;74.50
75146;BME280;63641;46.526;24.612;2023-04-01T23:26:24;95905.75;;;8.35;74.42
75146;BME280;63641;46.526;24.612;2023-04-01T23:28:57;95905.53;;;8.31;74.60
75146;BME280;63641;46.526;24.612;2023-04-01T23:34:01;95908.34;;;8.26;74.67
75146;BME280;63641;46.526;24.612;2023-04-01T23:36:30;95907.63;;;8.20;74.59
75146;BME280;63641;46.526;24.612;2023-04-01T23:39:00;95916.53;;;8.21;74.60